createdAt,value
2018-07-02T00:01:47.553Z,97959.00
2018-07-02T00:06:01.085Z,97965.00
2018-07-02T00:10:04.044Z,97962.00
2018-07-02T00:14:06.447Z,97951.00
2018-07-02T00:18:09.146Z,97950.00
2018-07-02T00:22:12.993Z,97951.00
2018-07-02T00:26:15.436Z,97933.00
2018-07-02T00:30:17.591Z,97937.00
2018-07-02T00:34:19.735Z,97937.00
2018-07-02T00:38:21.854Z,97942.00
2018-07-02T00:42:24.002Z,97940.00
2018-07-02T00:46:26.154Z,97938.00
2018-07-02T00:50:29.261Z,97933.00
2018-07-02T00:54:31.421Z,97934.00
2018-07-02T00:58:33.572Z,97937.00
2018-07-02T01:02:35.675Z,97941.00
2018-07-02T01:06:37.823Z,97932.00
2018-07-02T01:10:39.979Z,97926.00
2018-07-02T01:14:42.139Z,97931.00
2018-07-02T01:18:44.559Z,97932.00
2018-07-02T01:22:47.336Z,97923.00
2018-07-02T01:26:49.484Z,97924.00
2018-07-02T01:30:51.671Z,97922.00
2018-07-02T01:34:53.791Z,97920.00
2018-07-02T01:38:55.958Z,97912.00
2018-07-02T01:42:58.083Z,97910.00
2018-07-02T01:47:00.222Z,97919.00
2018-07-02T01:51:02.399Z,97915.00
2018-07-02T01:55:04.590Z,97912.00
2018-07-02T01:59:06.733Z,97915.00
2018-07-02T02:03:08.878Z,97915.00
2018-07-02T02:07:11.032Z,97924.00
2018-07-02T02:11:13.933Z,97920.00
2018-07-02T02:15:16.187Z,97916.00
2018-07-02T02:19:18.327Z,97923.00
2018-07-02T02:23:20.455Z,97917.00
2018-07-02T02:27:22.606Z,97919.00
2018-07-02T02:31:24.825Z,97927.00
2018-07-02T02:35:26.999Z,97922.00
2018-07-02T02:39:29.124Z,97921.00
2018-07-02T02:43:31.234Z,97910.00
2018-07-02T02:47:33.383Z,97908.00
2018-07-02T02:51:35.533Z,97905.00
2018-07-02T02:55:37.757Z,97898.00
2018-07-02T02:59:40.770Z,97903.00
2018-07-02T03:03:43.990Z,97905.00
2018-07-02T03:07:46.492Z,97914.00
2018-07-02T03:11:48.611Z,97919.00
2018-07-02T03:15:50.755Z,97911.00
2018-07-02T03:19:52.890Z,97916.00
2018-07-02T03:23:55.945Z,97911.00
2018-07-02T03:27:58.079Z,97908.00
2018-07-02T03:32:00.230Z,97903.00
2018-07-02T03:36:02.583Z,97911.00
2018-07-02T03:40:04.723Z,97920.00
2018-07-02T03:44:07.218Z,97919.00
2018-07-02T03:48:09.364Z,97916.00
2018-07-02T03:52:11.541Z,97905.00
2018-07-02T03:56:13.988Z,97916.00
2018-07-02T04:00:16.124Z,97914.00
2018-07-02T04:04:18.266Z,97906.00
2018-07-02T04:08:20.402Z,97915.00
2018-07-02T04:12:22.551Z,97918.00
2018-07-02T04:16:24.699Z,97918.00
2018-07-02T04:20:26.871Z,97929.00
2018-07-02T04:24:29.101Z,97926.00
2018-07-02T04:28:31.268Z,97931.00
2018-07-02T04:32:33.477Z,97926.00
2018-07-02T04:36:35.691Z,97922.00
2018-07-02T04:40:37.860Z,97923.00
2018-07-02T04:44:40.000Z,97924.00
2018-07-02T04:48:42.159Z,97921.00
2018-07-02T04:52:44.315Z,97919.00
2018-07-02T04:56:47.030Z,97926.00
2018-07-02T05:00:49.264Z,97933.00
2018-07-02T05:04:51.465Z,97923.00
2018-07-02T05:08:53.631Z,97944.00
2018-07-02T05:12:56.179Z,97940.00
2018-07-02T05:16:58.921Z,97943.00
2018-07-02T05:21:01.046Z,97937.00
2018-07-02T05:25:03.603Z,97929.00
2018-07-02T05:29:05.767Z,97919.00
2018-07-02T05:33:07.959Z,97911.00
2018-07-02T05:37:10.180Z,97917.00
2018-07-02T05:41:12.340Z,97925.00
2018-07-02T05:45:14.497Z,97921.00
2018-07-02T05:49:16.663Z,97925.00
2018-07-02T05:53:18.843Z,97929.00
2018-07-02T05:57:21.039Z,97919.00
2018-07-02T06:01:23.218Z,97914.00
2018-07-02T06:05:25.494Z,97918.00
2018-07-02T06:09:27.694Z,97906.00
2018-07-02T06:13:29.876Z,97914.00
2018-07-02T06:17:32.464Z,97917.00
2018-07-02T06:21:35.011Z,97928.00
2018-07-02T06:25:37.509Z,97928.00
2018-07-02T06:29:39.968Z,97922.00
2018-07-02T06:33:42.336Z,97924.00
2018-07-02T06:37:44.885Z,97923.00
2018-07-02T06:41:47.417Z,97925.00
2018-07-02T06:45:49.982Z,97933.00
2018-07-02T06:49:52.568Z,97936.00
2018-07-02T06:53:55.155Z,97939.00
2018-07-02T06:57:57.669Z,97939.00
2018-07-02T07:02:00.159Z,97941.00
2018-07-02T07:06:02.556Z,97947.00
2018-07-02T07:10:04.964Z,97941.00
2018-07-02T07:14:08.163Z,97959.00
2018-07-02T07:18:10.761Z,97957.00
2018-07-02T07:22:13.324Z,97953.00
2018-07-02T07:26:15.829Z,97951.00
2018-07-02T07:30:18.333Z,97943.00
2018-07-02T07:34:20.532Z,97945.00
2018-07-02T07:38:22.707Z,97946.00
2018-07-02T07:42:24.867Z,97942.00
2018-07-02T07:46:27.063Z,97957.00
2018-07-02T07:50:29.240Z,97953.00
2018-07-02T07:54:31.722Z,97952.00
2018-07-02T07:58:34.441Z,97951.00
2018-07-02T08:02:36.965Z,97955.00
2018-07-02T08:06:39.513Z,97952.00
2018-07-02T08:10:41.929Z,97955.00
2018-07-02T08:14:44.204Z,97950.00
2018-07-02T08:18:46.799Z,97954.00
2018-07-02T08:22:49.013Z,97953.00
2018-07-02T08:26:51.191Z,97959.00
2018-07-02T08:30:53.740Z,97955.00
2018-07-02T08:34:55.917Z,97956.00
2018-07-02T08:38:58.179Z,97943.00
2018-07-02T08:43:00.583Z,97943.00
2018-07-02T08:47:02.989Z,97938.00
2018-07-02T08:51:05.942Z,97941.00
2018-07-02T08:55:08.127Z,97961.00
2018-07-02T08:59:10.877Z,97947.00
2018-07-02T09:03:13.375Z,97947.00
2018-07-02T09:07:15.676Z,97937.00
2018-07-02T09:11:18.075Z,97940.00
2018-07-02T09:15:20.483Z,97948.00
2018-07-02T09:19:23.020Z,97934.00
2018-07-02T09:23:25.247Z,97946.00
2018-07-02T09:27:27.919Z,97937.00
2018-07-02T09:31:30.080Z,97938.00
2018-07-02T09:35:32.518Z,97937.00
2018-07-02T09:39:35.007Z,97944.00
2018-07-02T09:43:37.106Z,97938.00
2018-07-02T09:47:39.683Z,97927.00
2018-07-02T09:51:41.952Z,97928.00
2018-07-02T09:55:44.206Z,97929.00
2018-07-02T09:59:46.385Z,97927.00
2018-07-02T10:03:48.570Z,97933.00
2018-07-02T10:07:51.095Z,97934.00
2018-07-02T10:11:53.395Z,97929.00
2018-07-02T10:15:55.540Z,97925.00
2018-07-02T10:19:58.012Z,97921.00
2018-07-02T10:24:00.243Z,97928.00
2018-07-02T10:28:02.501Z,97935.00
2018-07-02T10:32:04.754Z,97942.00
2018-07-02T10:36:06.915Z,97937.00
2018-07-02T10:40:09.292Z,97930.00
2018-07-02T10:44:11.643Z,97936.00
2018-07-02T10:48:13.865Z,97929.00
2018-07-02T10:52:16.179Z,97934.00
2018-07-02T10:56:18.409Z,97927.00
2018-07-02T11:00:20.966Z,97937.00
2018-07-02T11:04:23.191Z,97932.00
2018-07-02T11:08:25.531Z,97917.00
2018-07-02T11:12:28.102Z,97912.00
2018-07-02T11:16:30.612Z,97931.00
2018-07-02T11:20:33.254Z,97923.00
2018-07-02T11:24:35.739Z,97924.00
2018-07-02T11:28:38.188Z,97924.00
2018-07-02T11:32:40.502Z,97913.00
2018-07-02T11:36:42.810Z,97908.00
2018-07-02T11:40:45.455Z,97909.00
2018-07-02T11:44:47.755Z,97893.00
2018-07-02T11:48:49.965Z,97887.00
2018-07-02T11:52:52.252Z,97888.00
2018-07-02T11:56:54.414Z,97886.00
2018-07-02T12:00:57.034Z,97886.00
2018-07-02T12:04:59.242Z,97894.00
2018-07-02T12:09:01.603Z,97897.00
2018-07-02T12:13:03.804Z,97896.00
2018-07-02T12:17:05.988Z,97894.00
2018-07-02T12:21:08.154Z,97876.00
2018-07-02T12:25:10.308Z,97890.00
2018-07-02T12:29:12.603Z,97884.00
2018-07-02T12:33:14.820Z,97896.00
2018-07-02T12:37:17.235Z,97895.00
2018-07-02T12:41:19.694Z,97895.00
2018-07-02T12:45:23.259Z,97852.00
2018-07-02T12:49:25.573Z,97887.00
2018-07-02T12:53:28.149Z,97886.00
2018-07-02T12:57:30.748Z,97882.00
2018-07-02T13:01:33.224Z,97883.00
2018-07-02T13:05:36.063Z,97812.00
2018-07-02T13:09:38.237Z,97883.00
2018-07-02T13:13:40.499Z,97884.00
2018-07-02T13:17:42.599Z,97883.00
2018-07-02T13:21:44.877Z,97877.00
2018-07-02T13:25:47.067Z,97877.00
2018-07-02T13:29:49.215Z,97886.00
2018-07-02T13:33:51.965Z,97882.00
2018-07-02T13:37:54.322Z,97876.00
2018-07-02T13:41:56.878Z,97877.00
2018-07-02T13:45:59.000Z,97872.00
2018-07-02T13:50:01.249Z,97867.00
2018-07-02T13:54:03.580Z,97866.00
2018-07-02T13:58:05.840Z,97873.00
2018-07-02T14:02:08.028Z,97863.00
2018-07-02T14:06:10.460Z,97855.00
2018-07-02T14:10:13.075Z,97859.00
2018-07-02T14:14:15.340Z,97857.00
2018-07-02T14:18:17.523Z,97854.00
2018-07-02T14:22:19.893Z,97850.00
2018-07-02T14:26:22.064Z,97849.00
2018-07-02T14:30:24.353Z,97837.00
2018-07-02T14:34:26.578Z,97846.00
2018-07-02T14:38:28.801Z,97837.00
2018-07-02T14:42:31.631Z,97827.00
2018-07-02T14:46:33.807Z,97822.00
2018-07-02T14:50:36.084Z,97828.00
2018-07-02T14:54:38.352Z,97826.00
2018-07-02T14:58:40.526Z,97818.00
2018-07-02T15:02:42.682Z,97818.00
2018-07-02T15:06:45.607Z,97822.00
2018-07-02T15:10:47.846Z,97806.00
2018-07-02T15:14:50.039Z,97809.00
2018-07-02T15:18:52.247Z,97823.00
2018-07-02T15:22:55.496Z,97829.00
2018-07-02T15:26:57.719Z,97834.00
2018-07-02T15:30:59.967Z,97814.00
2018-07-02T15:35:02.325Z,97826.00
2018-07-02T15:39:06.968Z,97820.00
2018-07-02T15:43:09.143Z,97839.00
2018-07-02T15:47:11.987Z,97834.00
2018-07-02T15:51:14.139Z,97830.00
2018-07-02T15:55:16.310Z,97835.00
2018-07-02T15:59:18.539Z,97833.00
2018-07-02T16:03:21.620Z,97833.00
2018-07-02T16:07:23.873Z,97825.00
2018-07-02T16:11:26.080Z,97827.00
2018-07-02T16:15:28.390Z,97813.00
2018-07-02T16:19:30.719Z,97818.00
2018-07-02T16:23:32.887Z,97822.00
2018-07-02T16:27:35.267Z,97818.00
2018-07-02T16:31:37.719Z,97822.00
2018-07-02T16:35:40.044Z,97808.00
2018-07-02T16:39:42.263Z,97813.00
2018-07-02T16:43:44.459Z,97821.00
2018-07-02T16:47:46.620Z,97823.00
2018-07-02T16:51:48.785Z,97819.00
2018-07-02T16:55:50.980Z,97825.00
2018-07-02T16:59:53.262Z,97819.00
2018-07-02T17:03:55.399Z,97827.00
2018-07-02T17:07:58.088Z,97832.00
2018-07-02T17:12:00.372Z,97833.00
2018-07-02T17:16:02.638Z,97825.00
2018-07-02T17:20:05.534Z,97829.00
2018-07-02T17:24:07.704Z,97828.00
2018-07-02T17:28:10.942Z,97836.00
2018-07-02T17:32:14.696Z,97812.00
2018-07-02T17:36:16.913Z,97818.00
2018-07-02T17:40:19.086Z,97830.00
2018-07-02T17:44:21.326Z,97818.00
2018-07-02T17:48:23.824Z,97827.00
2018-07-02T17:52:27.326Z,97831.00
2018-07-02T17:56:29.614Z,97823.00
2018-07-02T18:00:31.844Z,97830.00
2018-07-02T18:04:34.042Z,97828.00
2018-07-02T18:08:36.226Z,97828.00
2018-07-02T18:12:38.531Z,97825.00
2018-07-02T18:16:40.723Z,97818.00
2018-07-02T18:20:42.990Z,97828.00
2018-07-02T18:24:45.150Z,97826.00
2018-07-02T18:28:47.994Z,97837.00
2018-07-02T18:32:50.583Z,97839.00
2018-07-02T18:36:53.095Z,97845.00
2018-07-02T18:40:55.303Z,97845.00
2018-07-02T18:44:57.462Z,97844.00
2018-07-02T18:48:59.670Z,97844.00
2018-07-02T18:53:01.825Z,97841.00
2018-07-02T18:57:04.240Z,97846.00
2018-07-02T19:01:07.571Z,97843.00
2018-07-02T19:05:09.820Z,97851.00
2018-07-02T19:09:12.048Z,97856.00
2018-07-02T19:13:14.239Z,97857.00
2018-07-02T19:17:16.832Z,97845.00
2018-07-02T19:21:19.018Z,97861.00
2018-07-02T19:25:22.518Z,97865.00
2018-07-02T19:29:24.728Z,97870.00
2018-07-02T19:33:26.948Z,97868.00
2018-07-02T19:37:29.129Z,97869.00
2018-07-02T19:41:31.296Z,97885.00
2018-07-02T19:45:33.453Z,97891.00
2018-07-02T19:49:36.303Z,97890.00
2018-07-02T19:53:39.211Z,97900.00
2018-07-02T19:57:42.106Z,97892.00
2018-07-02T20:01:45.208Z,97902.00
2018-07-02T20:05:47.757Z,97909.00
2018-07-02T20:09:50.877Z,97923.00
2018-07-02T20:13:53.230Z,97921.00
2018-07-02T20:17:56.007Z,97924.00
2018-07-02T20:21:58.260Z,97928.00
2018-07-02T20:26:00.417Z,97928.00
2018-07-02T20:30:02.976Z,97929.00
2018-07-02T20:34:05.178Z,97940.00
2018-07-02T20:38:07.436Z,97940.00
2018-07-02T20:42:09.602Z,97936.00
2018-07-02T20:46:11.806Z,97936.00
2018-07-02T20:50:14.007Z,97935.00
2018-07-02T20:54:16.501Z,97945.00
2018-07-02T20:58:18.968Z,97962.00
2018-07-02T21:02:21.199Z,97961.00
2018-07-02T21:06:23.401Z,97974.00
2018-07-02T21:10:25.619Z,97969.00
2018-07-02T21:14:27.720Z,97967.00
2018-07-02T21:18:29.876Z,97970.00
2018-07-02T21:22:32.057Z,97968.00
2018-07-02T21:26:34.220Z,97966.00
2018-07-02T21:30:36.363Z,97967.00
2018-07-02T21:34:39.298Z,97967.00
2018-07-02T21:38:41.495Z,97971.00
2018-07-02T21:42:43.716Z,97978.00
2018-07-02T21:46:45.951Z,97990.00
2018-07-02T21:50:48.103Z,97986.00
2018-07-02T21:54:50.267Z,97991.00
2018-07-02T21:58:53.307Z,97993.00
2018-07-02T22:02:55.494Z,97993.00
2018-07-02T22:06:57.655Z,98001.00
2018-07-02T22:10:59.945Z,97995.00
2018-07-02T22:15:01.984Z,97995.00
2018-07-02T22:19:04.284Z,97994.00
2018-07-02T22:23:06.594Z,97994.00
2018-07-02T22:27:08.751Z,97990.00
2018-07-02T22:31:10.949Z,97999.00
2018-07-02T22:35:13.164Z,97991.00
2018-07-02T22:39:15.347Z,98001.00
2018-07-02T22:43:17.650Z,98007.00
2018-07-02T22:47:19.851Z,97997.00
2018-07-02T22:51:22.328Z,97997.00
2018-07-02T22:55:24.632Z,98007.00
2018-07-02T22:59:26.851Z,98004.00
2018-07-02T23:03:29.019Z,98013.00
2018-07-02T23:07:31.198Z,98002.00
2018-07-02T23:11:33.336Z,98002.00
2018-07-02T23:15:35.498Z,98016.00
2018-07-02T23:19:37.680Z,98014.00
2018-07-02T23:23:40.087Z,98016.00
2018-07-02T23:27:43.298Z,98006.00
2018-07-02T23:31:45.544Z,97998.00
2018-07-02T23:35:47.968Z,98005.00
2018-07-02T23:39:50.198Z,98014.00
2018-07-02T23:43:52.453Z,98006.00
2018-07-02T23:47:54.779Z,98007.00
2018-07-02T23:51:57.937Z,98004.00
2018-07-02T23:56:00.654Z,98003.00
